Dole Honduras — C6FX7 — position and weather

sailwx.info

Track history (hours):
 
Tides and Currents Weather Stations Pressure Air Temp Water Temp Dewpoint Dewpoint Depression Visibility Wind Speed Wind Dir Waves Ship Positions

Dole Honduras

Last reported at 2017-Oct-11 16:51 UTC. Time now 2017-Oct-18 05:41 UTC.
Position N 38°03' W 074°33'.

Length 179 m; draft 7.4 m.

Type: Cargo ship. MMSI: 311638000.

Date/timePositionNaut miles runAvg speedWind from/ knotsBaromVisibWave heightAir tempDewpointWater temp
2017-Oct-11 16:51N 38°03' W 074°33'110 6.5
2017-Oct-11 00:00N 39°43' W 075°31'0 0.0
2017-Oct-10 23:30N 39°43' W 075°31'0 0.0
2017-Oct-10 23:00N 39°43' W 075°31'0 0.0
2017-Oct-10 22:30N 39°43' W 075°31'0 0.0
2017-Oct-10 22:00N 39°43' W 075°31'0 0.0
2017-Oct-10 21:30N 39°43' W 075°31'0 0.0
2017-Oct-10 21:00N 39°43' W 075°31'0 0.0
2017-Oct-10 20:30N 39°43' W 075°31'0 0.0
2017-Oct-10 20:00N 39°43' W 075°31'0 0.0
2017-Oct-10 19:30N 39°43' W 075°31'0 0.0
2017-Oct-10 19:00N 39°43' W 075°31'0 0.0
2017-Oct-10 18:30N 39°43' W 075°31'0 0.0
2017-Oct-10 18:00N 39°43' W 075°31'0 0.0
2017-Oct-10 17:30N 39°43' W 075°31'0 0.0
2017-Oct-10 17:00N 39°43' W 075°31'1 2.3
2017-Oct-10 16:30N 39°42' W 075°31'5 9.0
2017-Oct-10 16:01N 39°38' W 075°34'611.7
2017-Oct-10 15:31N 39°33' W 075°33'714.4
2017-Oct-10 15:00N 39°25' W 075°31'1615.8
2017-Oct-10 14:00N 39°13' W 075°18'816.2
2017-Oct-10 13:31N 39°07' W 075°13'816.2
2017-Oct-10 13:00N 38°59' W 075°08'816.1
2017-Oct-10 12:31N 38°52' W 075°04'612.2
2017-Oct-10 12:00N 38°46' W 075°01'5 9.5
2017-Oct-10 11:30N 38°44' W 074°56'714.3
2017-Oct-10 11:00N 38°38' W 074°50'917.2
2017-Oct-10 10:31N 38°31' W 074°43'917.0
2017-Oct-10 10:01N 38°24' W 074°38'1017.3
2017-Oct-10 09:27N 38°15' W 074°34'72018.6
2017-Oct-08 18:48N 27°03' W 079°45'3319.8
2017-Oct-08 17:09N 26°31' W 079°52'318.8
2017-Oct-08 17:00N 26°29' W 079°54'918.2
2017-Oct-08 16:30N 26°20' W 079°56'918.3
2017-Oct-08 16:00N 26°11' W 079°59'714.9
2017-Oct-08 15:30N 26°06' W 080°05'2 4.9
2017-Oct-08 15:00N 26°04' W 080°07'0 0.2
2017-Oct-08 14:30N 26°04' W 080°07'0 0.0
2017-Oct-08 14:00N 26°04' W 080°07'0 0.0
2017-Oct-08 13:24N 26°04' W 080°07'0 0.0
2017-Oct-08 12:54N 26°04' W 080°07'0 0.0
2017-Oct-08 12:24N 26°04' W 080°07'0 0.0
2017-Oct-08 11:54N 26°04' W 080°07'0 0.0
2017-Oct-08 11:27N 26°04' W 080°07'0 0.0
2017-Oct-08 11:00N 26°04' W 080°07'0 0.0
2017-Oct-08 10:27N 26°04' W 080°07'0 0.0
2017-Oct-08 09:57N 26°04' W 080°07'0 0.0
2017-Oct-08 09:27N 26°04' W 080°07'0 0.0
2017-Oct-08 08:57N 26°04' W 080°07'0 0.0
2017-Oct-08 08:27N 26°04' W 080°07'0 0.0
2017-Oct-08 07:57N 26°04' W 080°07'0 0.0
2017-Oct-08 07:30N 26°04' W 080°07'0 0.0
2017-Oct-08 07:00N 26°04' W 080°07'0 0.0
2017-Oct-08 06:30N 26°04' W 080°07'0 0.0
2017-Oct-08 06:00N 26°04' W 080°07'0 0.0
2017-Oct-08 05:30N 26°04' W 080°07'1 2.3
2017-Oct-08 05:00N 26°05' W 080°07'5 9.2
2017-Oct-08 04:30N 26°05' W 080°02'611.9
2017-Oct-08 04:00N 25°59' W 080°02'917.8
2017-Oct-08 03:30N 25°50' W 080°00'1019.8
2017-Oct-08 03:00N 25°40' W 079°59'1019.6
2017-Oct-08 02:30N 25°31' W 079°58'1019.7
2017-Oct-08 02:00N 25°21' W 079°58'  
Track history (hours):
 
Tides and Currents Weather Stations Pressure Air Temp Water Temp Dewpoint Dewpoint Depression Visibility Wind Speed Wind Dir Waves Ship Positions

Dole Honduras

Last reported at 2017-Oct-11 16:51 UTC. Time now 2017-Oct-18 05:41 UTC.
Position N 38°03' W 074°33'.

Length 179 m; draft 7.4 m.

Type: Cargo ship. MMSI: 311638000.

Date/timePositionNaut miles runAvg speedWind from/ knotsBaromVisibWave heightAir tempDewpointWater temp
2017-Oct-11 16:51N 38°03' W 074°33'110 6.5
2017-Oct-11 00:00N 39°43' W 075°31'0 0.0
2017-Oct-10 23:30N 39°43' W 075°31'0 0.0
2017-Oct-10 23:00N 39°43' W 075°31'0 0.0
2017-Oct-10 22:30N 39°43' W 075°31'0 0.0
2017-Oct-10 22:00N 39°43' W 075°31'0 0.0
2017-Oct-10 21:30N 39°43' W 075°31'0 0.0
2017-Oct-10 21:00N 39°43' W 075°31'0 0.0
2017-Oct-10 20:30N 39°43' W 075°31'0 0.0
2017-Oct-10 20:00N 39°43' W 075°31'0 0.0
2017-Oct-10 19:30N 39°43' W 075°31'0 0.0
2017-Oct-10 19:00N 39°43' W 075°31'0 0.0
2017-Oct-10 18:30N 39°43' W 075°31'0 0.0
2017-Oct-10 18:00N 39°43' W 075°31'0 0.0
2017-Oct-10 17:30N 39°43' W 075°31'0 0.0
2017-Oct-10 17:00N 39°43' W 075°31'1 2.3
2017-Oct-10 16:30N 39°42' W 075°31'5 9.0
2017-Oct-10 16:01N 39°38' W 075°34'611.7
2017-Oct-10 15:31N 39°33' W 075°33'714.4
2017-Oct-10 15:00N 39°25' W 075°31'1615.8
2017-Oct-10 14:00N 39°13' W 075°18'816.2
2017-Oct-10 13:31N 39°07' W 075°13'816.2
2017-Oct-10 13:00N 38°59' W 075°08'816.1
2017-Oct-10 12:31N 38°52' W 075°04'612.2
2017-Oct-10 12:00N 38°46' W 075°01'5 9.5
2017-Oct-10 11:30N 38°44' W 074°56'714.3
2017-Oct-10 11:00N 38°38' W 074°50'917.2
2017-Oct-10 10:31N 38°31' W 074°43'917.0
2017-Oct-10 10:01N 38°24' W 074°38'1017.3
2017-Oct-10 09:27N 38°15' W 074°34'72018.6
2017-Oct-08 18:48N 27°03' W 079°45'3319.8
2017-Oct-08 17:09N 26°31' W 079°52'318.8
2017-Oct-08 17:00N 26°29' W 079°54'918.2
2017-Oct-08 16:30N 26°20' W 079°56'918.3
2017-Oct-08 16:00N 26°11' W 079°59'714.9
2017-Oct-08 15:30N 26°06' W 080°05'2 4.9
2017-Oct-08 15:00N 26°04' W 080°07'0 0.2
2017-Oct-08 14:30N 26°04' W 080°07'0 0.0
2017-Oct-08 14:00N 26°04' W 080°07'0 0.0
2017-Oct-08 13:24N 26°04' W 080°07'0 0.0
2017-Oct-08 12:54N 26°04' W 080°07'0 0.0
2017-Oct-08 12:24N 26°04' W 080°07'0 0.0
2017-Oct-08 11:54N 26°04' W 080°07'0 0.0
2017-Oct-08 11:27N 26°04' W 080°07'0 0.0
2017-Oct-08 11:00N 26°04' W 080°07'0 0.0
2017-Oct-08 10:27N 26°04' W 080°07'0 0.0
2017-Oct-08 09:57N 26°04' W 080°07'0 0.0
2017-Oct-08 09:27N 26°04' W 080°07'0 0.0
2017-Oct-08 08:57N 26°04' W 080°07'0 0.0
2017-Oct-08 08:27N 26°04' W 080°07'0 0.0
2017-Oct-08 07:57N 26°04' W 080°07'0 0.0
2017-Oct-08 07:30N 26°04' W 080°07'0 0.0
2017-Oct-08 07:00N 26°04' W 080°07'0 0.0
2017-Oct-08 06:30N 26°04' W 080°07'0 0.0
2017-Oct-08 06:00N 26°04' W 080°07'0 0.0
2017-Oct-08 05:30N 26°04' W 080°07'1 2.3
2017-Oct-08 05:00N 26°05' W 080°07'5 9.2
2017-Oct-08 04:30N 26°05' W 080°02'611.9
2017-Oct-08 04:00N 25°59' W 080°02'917.8
2017-Oct-08 03:30N 25°50' W 080°00'1019.8
2017-Oct-08 03:00N 25°40' W 079°59'1019.6
2017-Oct-08 02:30N 25°31' W 079°58'1019.7
2017-Oct-08 02:00N 25°21' W 079°58'  

Dump ship's entire track history